Dai2kousei — JD2542 — position and weather

sailwx.info

Track history (hours):
 
Tides and Currents Weather Stations Pressure Air Temp Water Temp Dewpoint Dewpoint Depression Visibility Wind Speed Wind Dir Waves Ship Positions

Dai2kousei

Last reported at 2015-Feb-26 23:24 UTC. Time now 2015-Mar-05 10:31 UTC.
Position N 34°03' E 134°43'.

Length 77 m; draft 4.2 m.

MMSI: 431000467.

Date/timePositionNaut miles runAvg speedWind from/ knotsBaromVisibWave heightAir tempDewpointWater temp
2015-Feb-26 23:24N 34°03' E 134°43'245 5.3
2015-Feb-25 01:31N 34°59' E 139°32'1111.0
2015-Feb-25 00:33N 35°06' E 139°42'1110.7
2015-Feb-24 23:32N 35°17' E 139°45'9 8.7
2015-Feb-24 22:33N 35°25' E 139°46'6 5.5
2015-Feb-24 21:33N 35°22' E 139°51'0 0.0
2015-Feb-24 20:33N 35°22' E 139°51'0 0.0
2015-Feb-24 19:33N 35°22' E 139°51'0 0.0
2015-Feb-24 18:33N 35°22' E 139°51'0 0.0
2015-Feb-24 17:34N 35°22' E 139°51'1 0.7
2015-Feb-24 16:34N 35°22' E 139°50'2 1.4
2015-Feb-24 15:20N 35°22' E 139°53'0 0.0
2015-Feb-24 09:27N 35°22' E 139°53'6 7.1
2015-Feb-24 08:33N 35°24' E 139°45'0 0.1
2015-Feb-24 07:34N 35°24' E 139°45'0 0.0
2015-Feb-24 06:33N 35°24' E 139°45'0 0.1
2015-Feb-24 05:33N 35°24' E 139°45'0 0.0
2015-Feb-24 04:33N 35°24' E 139°45'0 0.0
2015-Feb-24 03:22N 35°24' E 139°45'0 0.0
2015-Feb-24 02:32N 35°24' E 139°45'0 0.0
2015-Feb-24 01:32N 35°24' E 139°45'0 0.0
2015-Feb-24 00:33N 35°24' E 139°45'6 6.5
2015-Feb-23 23:33N 35°18' E 139°45'  
Track history (hours):
 
Tides and Currents Weather Stations Pressure Air Temp Water Temp Dewpoint Dewpoint Depression Visibility Wind Speed Wind Dir Waves Ship Positions

Dai2kousei

Last reported at 2015-Feb-26 23:24 UTC. Time now 2015-Mar-05 10:31 UTC.
Position N 34°03' E 134°43'.

Length 77 m; draft 4.2 m.

MMSI: 431000467.

Date/timePositionNaut miles runAvg speedWind from/ knotsBaromVisibWave heightAir tempDewpointWater temp
2015-Feb-26 23:24N 34°03' E 134°43'245 5.3
2015-Feb-25 01:31N 34°59' E 139°32'1111.0
2015-Feb-25 00:33N 35°06' E 139°42'1110.7
2015-Feb-24 23:32N 35°17' E 139°45'9 8.7
2015-Feb-24 22:33N 35°25' E 139°46'6 5.5
2015-Feb-24 21:33N 35°22' E 139°51'0 0.0
2015-Feb-24 20:33N 35°22' E 139°51'0 0.0
2015-Feb-24 19:33N 35°22' E 139°51'0 0.0
2015-Feb-24 18:33N 35°22' E 139°51'0 0.0
2015-Feb-24 17:34N 35°22' E 139°51'1 0.7
2015-Feb-24 16:34N 35°22' E 139°50'2 1.4
2015-Feb-24 15:20N 35°22' E 139°53'0 0.0
2015-Feb-24 09:27N 35°22' E 139°53'6 7.1
2015-Feb-24 08:33N 35°24' E 139°45'0 0.1
2015-Feb-24 07:34N 35°24' E 139°45'0 0.0
2015-Feb-24 06:33N 35°24' E 139°45'0 0.1
2015-Feb-24 05:33N 35°24' E 139°45'0 0.0
2015-Feb-24 04:33N 35°24' E 139°45'0 0.0
2015-Feb-24 03:22N 35°24' E 139°45'0 0.0
2015-Feb-24 02:32N 35°24' E 139°45'0 0.0
2015-Feb-24 01:32N 35°24' E 139°45'0 0.0
2015-Feb-24 00:33N 35°24' E 139°45'6 6.5
2015-Feb-23 23:33N 35°18' E 139°45'  

Dump ship's entire track history